Time;durP1;ratioP1;P1;durP2;ratioP2;P2;SDS_P1;SDS_P2;PMS_P1;PMS_P2;Temp;Humidity;BMP_temperature;BMP_pressure;BME280_temperature;BME280_humidity;BME280_pressure;Samples;Min_cycle;Max_cycle;Signal;HPM_P1;HPM_P2
2022/01/07 00:00:13;;;;;;;8.60;4.92;;;;;;;3.47;66.31;99905.30;1746311;80;21011;-71
2022/01/07 00:02:40;;;;;;;6.75;4.28;;;;;;;3.50;66.16;99898.77;1746468;82;21039;-71
2022/01/07 00:05:08;;;;;;;6.22;4.15;;;;;;;3.52;65.88;99909.89;1746875;82;21067;-72
2022/01/07 00:07:36;;;;;;;6.20;4.10;;;;;;;3.51;65.52;99909.09;1746944;82;21018;-71
2022/01/07 00:10:03;;;;;;;6.47;4.40;;;;;;;3.57;65.63;99912.67;1746500;81;21130;-71
2022/01/07 00:12:30;;;;;;;7.47;4.30;;;;;;;3.55;65.50;99907.32;1723747;81;21015;-71
2022/01/07 00:14:57;;;;;;;7.12;4.40;;;;;;;3.56;65.43;99907.63;1746504;82;21007;-72
2022/01/07 00:17:23;;;;;;;7.58;4.47;;;;;;;3.52;65.31;99916.00;1723587;82;20984;-72
2022/01/07 00:19:50;;;;;;;6.47;4.20;;;;;;;3.54;65.13;99923.69;1746697;82;21015;-71
2022/01/07 00:22:18;;;;;;;7.83;4.17;;;;;;;3.51;65.06;99916.21;1723347;81;21200;-71
2022/01/07 00:24:44;;;;;;;5.95;3.80;;;;;;;3.46;64.83;99935.38;1786409;79;20952;-72
2022/01/07 00:27:11;;;;;;;6.85;4.12;;;;;;;3.39;64.74;99936.48;1786597;79;21023;-71
2022/01/07 00:29:38;;;;;;;5.78;3.65;;;;;;;3.41;64.76;99929.95;1786368;79;21075;-71
2022/01/07 00:32:06;;;;;;;5.75;4.00;;;;;;;3.37;64.71;99940.69;1786597;79;21066;-71
2022/01/07 00:34:34;;;;;;;6.53;3.67;;;;;;;3.33;64.78;99928.97;1786426;79;21144;-72
2022/01/07 00:37:01;;;;;;;5.42;3.77;;;;;;;3.32;64.82;99931.81;1786207;79;21020;-71
2022/01/07 00:39:28;;;;;;;6.20;3.77;;;;;;;3.33;64.90;99933.45;1786279;79;21142;-71
2022/01/07 00:41:55;;;;;;;8.58;4.65;;;;;;;3.33;64.94;99938.73;1786437;79;21020;-71
2022/01/07 00:44:22;;;;;;;6.87;4.35;;;;;;;3.34;64.99;99937.69;1786495;79;21008;-72
2022/01/07 00:46:48;;;;;;;5.97;3.87;;;;;;;3.37;64.96;99951.24;1786322;79;21495;-71
2022/01/07 00:49:21;;;;;;;5.60;3.70;;;;;;;3.41;64.82;99942.36;1786308;79;21004;-71
2022/01/07 00:51:45;;;;;;;6.50;4.05;;;;;;;3.45;64.56;99939.03;1785989;79;21027;-72
2022/01/07 00:54:12;;;;;;;5.87;4.08;;;;;;;3.48;64.57;99950.98;1786346;79;21523;-72
2022/01/07 00:56:38;;;;;;;5.83;3.95;;;;;;;3.49;64.40;99946.02;1786305;79;21527;-72
2022/01/07 00:59:05;;;;;;;5.87;3.58;;;;;;;3.52;64.42;99953.45;1786561;79;21405;-72
2022/01/07 01:01:32;;;;;;;5.90;3.65;;;;;;;3.50;64.16;99948.94;1786312;79;21456;-71
2022/01/07 01:04:00;;;;;;;6.42;3.72;;;;;;;3.52;63.96;99956.09;1786203;80;21036;-71
2022/01/07 01:06:26;;;;;;;5.50;3.60;;;;;;;3.55;63.46;99930.56;1786570;79;20975;-72
2022/01/07 01:08:54;;;;;;;5.87;3.45;;;;;;;3.55;63.22;99962.25;1786572;79;20952;-71
2022/01/07 01:11:22;;;;;;;5.87;3.33;;;;;;;3.53;63.07;99967.77;1786122;79;21092;-71
2022/01/07 01:13:55;;;;;;;6.60;3.50;;;;;;;3.53;63.08;99963.81;1786285;80;21519;-72
2022/01/07 01:16:21;;;;;;;5.12;3.33;;;;;;;3.49;62.62;99967.94;1786402;79;20964;-72
2022/01/07 01:18:49;;;;;;;5.75;3.20;;;;;;;3.50;62.76;99951.58;1786319;79;21027;-71
2022/01/07 01:21:16;;;;;;;4.47;3.02;;;;;;;3.52;62.67;99962.21;1786702;79;21011;-71
2022/01/07 01:23:50;;;;;;;4.80;2.92;;;;;;;3.55;62.39;99962.77;1786407;80;21163;-71
2022/01/07 01:26:24;;;;;;;4.17;3.05;;;;;;;3.51;62.12;99961.90;1778236;79;21004;-72
2022/01/07 01:28:50;;;;;;;5.45;3.15;;;;;;;3.50;61.63;99962.94;1739741;82;21165;-71
2022/01/07 01:31:18;;;;;;;4.65;2.80;;;;;;;3.49;61.09;99953.94;1746631;82;20967;-71
2022/01/07 01:33:45;;;;;;;4.35;2.77;;;;;;;3.47;60.74;99968.66;1749941;82;21021;-72
2022/01/07 01:36:13;;;;;;;4.03;2.52;;;;;;;3.43;60.50;99966.19;1721997;82;21521;-72
2022/01/07 01:38:40;;;;;;;4.00;2.50;;;;;;;3.42;60.38;99967.23;1749888;82;21030;-72
2022/01/07 01:41:07;;;;;;;4.53;2.60;;;;;;;3.38;59.90;99958.64;1749786;82;21053;-71
2022/01/07 01:43:35;;;;;;;4.47;2.50;;;;;;;3.38;59.92;99951.52;1749394;81;20947;-72
2022/01/07 01:46:02;;;;;;;4.60;2.40;;;;;;;3.39;59.77;99968.16;1723083;82;21506;-72
2022/01/07 01:48:28;;;;;;;4.50;2.70;;;;;;;3.34;59.64;99975.97;1723603;81;21569;-71
2022/01/07 01:50:55;;;;;;;5.17;3.08;;;;;;;3.34;59.87;99989.97;1786244;79;21004;-71
2022/01/07 01:53:24;;;;;;;4.62;2.75;;;;;;;3.29;59.96;100018.36;1786418;79;21106;-71
2022/01/07 01:55:53;;;;;;;5.00;2.95;;;;;;;3.28;59.85;99993.48;1785993;80;21055;-71
2022/01/07 01:58:19;;;;;;;4.62;2.90;;;;;;;3.32;59.90;100004.41;1786537;79;21079;-70
2022/01/07 02:00:46;;;;;;;5.47;2.90;;;;;;;3.34;59.76;100011.60;1786459;79;22157;-72
2022/01/07 02:03:12;;;;;;;5.20;3.05;;;;;;;3.36;59.66;100012.20;1786196;79;20992;-71
2022/01/07 02:05:39;;;;;;;4.67;3.08;;;;;;;3.37;59.42;100029.12;1786263;79;20968;-71
2022/01/07 02:08:07;;;;;;;5.00;3.00;;;;;;;3.40;59.47;100019.44;1786270;79;21024;-71
2022/01/07 02:10:34;;;;;;;4.75;2.83;;;;;;;3.41;59.52;100021.03;1758382;80;21043;-71
2022/01/07 02:13:01;;;;;;;4.17;2.77;;;;;;;3.39;59.53;100032.35;1786342;79;21348;-71
2022/01/07 02:15:28;;;;;;;4.55;2.77;;;;;;;3.38;59.32;100045.76;1786286;79;21032;-70
2022/01/07 02:17:57;;;;;;;4.87;2.85;;;;;;;3.35;59.53;100040.92;1785458;79;21042;-71
2022/01/07 02:20:26;;;;;;;4.85;2.80;;;;;;;3.34;59.67;100039.31;1786359;79;21098;-72
2022/01/07 02:22:53;;;;;;;4.47;2.83;;;;;;;3.33;59.73;100054.88;1745720;82;21102;-72
2022/01/07 02:25:22;;;;;;;4.75;2.70;;;;;;;3.31;59.96;100047.16;1723315;81;21537;-71
2022/01/07 02:27:49;;;;;;;5.25;2.90;;;;;;;3.30;60.08;100050.83;1745827;82;20924;-71
2022/01/07 02:30:20;;;;;;;4.47;2.50;;;;;;;3.26;60.20;100048.35;1723421;82;21051;-72
2022/01/07 02:32:46;;;;;;;4.03;2.50;;;;;;;3.23;60.27;100049.59;1723058;82;21116;-71
2022/01/07 02:35:14;;;;;;;3.62;2.30;;;;;;;3.26;60.33;100068.14;1746608;82;21097;-71
2022/01/07 02:37:41;;;;;;;3.47;2.10;;;;;;;3.24;60.46;100053.03;1746661;82;21770;-71
2022/01/07 02:40:09;;;;;;;4.67;2.60;;;;;;;3.25;60.59;100056.75;1694086;83;21004;-70
2022/01/07 02:42:35;;;;;;;3.95;2.33;;;;;;;3.21;60.82;100060.07;1723395;82;21023;-71
2022/01/07 02:45:08;;;;;;;3.98;2.30;;;;;;;3.18;60.97;100053.91;1786447;79;21071;-71
2022/01/07 02:47:49;;;;;;;3.37;1.85;;;;;;;3.17;61.10;100067.63;1786308;79;20964;-71
2022/01/07 02:50:06;;;;;;;3.12;1.90;;;;;;;3.11;61.21;100053.98;1784155;79;21594;-71
2022/01/07 02:52:34;;;;;;;3.15;1.90;;;;;;;3.10;61.40;100058.18;1786307;79;20940;-70
2022/01/07 02:55:00;;;;;;;3.70;1.90;;;;;;;3.08;61.54;100045.70;1786192;79;21475;-71
2022/01/07 02:57:28;;;;;;;3.47;1.80;;;;;;;3.08;61.67;100090.05;1786532;79;21542;-71
2022/01/07 02:59:54;;;;;;;3.75;1.70;;;;;;;3.08;61.69;100072.09;1786347;79;21601;-71
2022/01/07 03:02:21;;;;;;;4.62;1.77;;;;;;;3.04;61.78;100078.32;1720460;82;21486;-72
2022/01/07 03:04:48;;;;;;;2.37;1.50;;;;;;;3.03;61.86;100082.80;1715261;82;21046;-71
2022/01/07 03:07:15;;;;;;;3.62;1.82;;;;;;;2.99;61.88;100081.59;1723516;82;20972;-72
2022/01/07 03:09:42;;;;;;;2.95;1.75;;;;;;;3.02;61.96;100083.80;1786428;79;21008;-72
2022/01/07 03:12:09;;;;;;;2.62;1.50;;;;;;;3.02;61.97;100085.13;1720376;83;21042;-72
2022/01/07 03:14:36;;;;;;;3.02;1.42;;;;;;;3.01;62.04;100094.07;1720202;82;21147;-72
2022/01/07 03:17:04;;;;;;;4.03;1.98;;;;;;;2.99;62.26;100101.38;1720092;82;20945;-70
2022/01/07 03:19:31;;;;;;;3.27;1.60;;;;;;;2.95;62.66;100117.88;1715385;82;21075;-71
2022/01/07 03:21:57;;;;;;;2.25;1.20;;;;;;;2.91;62.91;100124.10;1723697;81;20964;-70
2022/01/07 03:24:24;;;;;;;2.85;1.40;;;;;;;2.89;63.29;100123.50;1723549;82;21609;-70
2022/01/07 03:26:50;;;;;;;1.80;1.00;;;;;;;2.85;63.77;100144.75;1786739;79;21496;-69
2022/01/07 03:29:17;;;;;;;2.90;1.30;;;;;;;2.77;64.57;100156.38;1786403;79;21062;-70
2022/01/07 03:31:43;;;;;;;1.77;1.17;;;;;;;2.67;65.34;100144.20;1786464;79;21039;-69
2022/01/07 03:34:10;;;;;;;3.12;1.22;;;;;;;2.54;67.38;100166.70;1786468;79;21102;-69
2022/01/07 03:36:37;;;;;;;3.10;1.55;;;;;;;2.41;68.62;100175.50;1786329;79;21027;-70
2022/01/07 03:39:03;;;;;;;1.80;1.00;;;;;;;2.30;69.63;100190.66;1786463;79;21201;-69
2022/01/07 03:41:30;;;;;;;3.58;1.20;;;;;;;2.22;70.45;100190.92;1786330;79;21016;-69
2022/01/07 03:43:57;;;;;;;3.83;1.60;;;;;;;2.16;70.87;100189.13;1786509;79;20960;-70
2022/01/07 03:46:24;;;;;;;2.65;1.32;;;;;;;2.09;70.98;100197.06;1786278;79;21532;-71
2022/01/07 03:48:51;;;;;;;1.80;0.98;;;;;;;2.04;70.92;100196.38;1786420;79;21040;-70
2022/01/07 03:51:18;;;;;;;2.60;1.00;;;;;;;2.01;70.95;100206.02;1786399;79;21118;-70
2022/01/07 03:53:45;;;;;;;2.05;0.90;;;;;;;2.01;70.77;100198.12;1786360;79;20957;-70
2022/01/07 03:56:17;;;;;;;1.75;0.90;;;;;;;1.99;70.95;100198.83;1786216;79;21085;-69
2022/01/07 03:58:39;;;;;;;1.77;1.00;;;;;;;1.98;71.08;100205.12;1785586;79;21032;-70
2022/01/07 04:01:06;;;;;;;2.45;1.30;;;;;;;1.97;71.24;100210.06;1746418;81;21542;-70
2022/01/07 04:03:32;;;;;;;2.72;1.45;;;;;;;1.96;71.36;100212.41;1746566;82;21130;-71
2022/01/07 04:05:59;;;;;;;2.27;1.37;;;;;;;1.93;71.78;100221.23;1744115;82;21423;-70
2022/01/07 04:08:26;;;;;;;3.25;1.62;;;;;;;1.90;71.90;100218.50;1709159;83;21528;-70
2022/01/07 04:10:52;;;;;;;4.05;1.67;;;;;;;1.88;72.08;100230.58;1746154;82;20968;-71
2022/01/07 04:13:18;;;;;;;2.92;1.65;;;;;;;1.93;72.02;100223.87;1723403;82;21086;-70
2022/01/07 04:15:45;;;;;;;3.15;1.60;;;;;;;1.90;71.84;100239.58;1723490;81;21184;-70
2022/01/07 04:18:12;;;;;;;3.67;1.42;;;;;;;1.95;71.84;100227.12;1746697;80;21047;-70
2022/01/07 04:20:39;;;;;;;3.85;2.00;;;;;;;1.95;71.72;100229.75;1723165;82;20966;-70
2022/01/07 04:23:06;;;;;;;2.37;1.30;;;;;;;1.95;71.52;100234.51;1746205;82;21463;-70
2022/01/07 04:25:34;;;;;;;3.10;1.40;;;;;;;1.96;71.44;100237.43;1745947;82;21602;-70
2022/01/07 04:28:05;;;;;;;2.87;1.37;;;;;;;1.95;71.45;100243.72;1744906;82;21555;-70
2022/01/07 04:30:35;;;;;;;3.15;1.50;;;;;;;1.95;71.66;100247.67;1745524;82;21074;-70
2022/01/07 04:33:03;;;;;;;2.55;1.15;;;;;;;1.94;72.01;100250.50;1723306;82;21024;-69
2022/01/07 04:35:32;;;;;;;3.25;1.57;;;;;;;1.88;72.44;100252.16;1723501;81;21098;-70
2022/01/07 04:37:59;;;;;;;2.87;1.42;;;;;;;1.81;72.60;100256.12;1745679;82;21028;-70
2022/01/07 04:40:27;;;;;;;2.62;1.10;;;;;;;1.80;72.81;100257.13;1746534;82;21468;-70
2022/01/07 04:42:54;;;;;;;1.85;1.07;;;;;;;1.80;72.76;100267.66;1746690;82;21541;-70
2022/01/07 04:45:20;;;;;;;3.10;1.50;;;;;;;1.80;72.68;100270.80;1746207;82;21102;-70
2022/01/07 04:47:48;;;;;;;2.70;1.40;;;;;;;1.83;72.57;100266.44;1746758;82;21442;-70
2022/01/07 04:50:16;;;;;;;2.77;1.40;;;;;;;1.86;72.33;100277.37;1746253;82;21023;-70
2022/01/07 04:52:44;;;;;;;2.12;1.15;;;;;;;1.94;71.97;100287.38;1746806;82;21554;-69
2022/01/07 04:55:18;;;;;;;2.70;1.30;;;;;;;1.95;71.48;100284.55;1759966;80;21488;-70
2022/01/07 04:57:45;;;;;;;4.28;1.87;;;;;;;1.96;70.52;100286.16;1759126;80;21110;-69
2022/01/07 05:00:14;;;;;;;2.33;1.10;;;;;;;2.01;70.01;100286.88;1723381;82;21059;-70
2022/01/07 05:02:43;;;;;;;1.77;1.05;;;;;;;2.03;69.27;100296.67;1723945;82;21058;-71
2022/01/07 05:05:10;;;;;;;2.47;1.20;;;;;;;2.07;68.86;100304.45;1786055;79;21143;-70
2022/01/07 05:07:38;;;;;;;2.67;1.35;;;;;;;2.09;68.50;100298.48;1786611;80;21522;-69
2022/01/07 05:10:09;;;;;;;2.75;1.40;;;;;;;2.11;68.49;100303.86;1786439;79;21519;-70
2022/01/07 05:12:36;;;;;;;2.42;1.37;;;;;;;2.15;68.47;100303.45;1786718;79;21177;-70
2022/01/07 05:15:05;;;;;;;2.77;1.25;;;;;;;2.17;68.17;100309.30;1786470;79;21011;-70
2022/01/07 05:17:33;;;;;;;2.27;1.20;;;;;;;2.19;68.08;100323.08;1786482;80;21121;-70
2022/01/07 05:20:00;;;;;;;2.95;1.67;;;;;;;2.19;68.17;100322.57;1786310;79;21024;-71
2022/01/07 05:22:29;;;;;;;2.40;1.20;;;;;;;2.15;69.12;100357.45;1786739;79;21015;-71
2022/01/07 05:24:56;;;;;;;3.27;1.57;;;;;;;2.05;70.34;100334.17;1786104;79;21020;-70
2022/01/07 05:27:30;;;;;;;2.72;1.45;;;;;;;1.92;71.18;100331.05;1786507;79;21547;-70
2022/01/07 05:30:00;;;;;;;2.80;1.40;;;;;;;1.81;71.83;100329.03;1736645;80;21910;-70
2022/01/07 05:32:32;;;;;;;2.85;1.57;;;;;;;1.72;72.31;100338.98;1786301;79;21032;-70
2022/01/07 05:35:01;;;;;;;3.50;1.72;;;;;;;1.63;72.56;100337.05;1786559;78;21043;-70
2022/01/07 05:37:32;;;;;;;2.55;1.42;;;;;;;1.59;72.70;100342.42;1786139;79;21003;-70
2022/01/07 05:40:06;;;;;;;2.45;1.52;;;;;;;1.54;72.78;100347.98;1786235;79;21520;-70
2022/01/07 05:42:37;;;;;;;2.15;1.10;;;;;;;1.51;72.81;100354.46;1786996;79;21094;-70
2022/01/07 05:45:10;;;;;;;2.77;1.55;;;;;;;1.56;72.92;100363.09;1786236;79;21055;-71
2022/01/07 05:47:47;;;;;;;2.90;1.75;;;;;;;1.61;73.07;100372.00;1786305;79;21526;-70
2022/01/07 05:50:27;;;;;;;2.50;1.45;;;;;;;1.67;73.24;100395.89;1786152;79;21012;-69
2022/01/07 05:53:08;;;;;;;2.52;1.42;;;;;;;1.74;73.43;100395.38;1783673;79;21034;-69
2022/01/07 05:55:40;;;;;;;2.77;1.75;;;;;;;1.78;73.72;100407.14;1720091;81;21704;-70
2022/01/07 05:58:07;;;;;;;3.17;1.82;;;;;;;1.79;74.18;100414.83;1718803;81;21120;-70
2022/01/07 06:00:34;;;;;;;3.75;1.98;;;;;;;1.74;74.79;100415.12;1732005;81;21404;-70
2022/01/07 06:03:00;;;;;;;3.70;1.82;;;;;;;1.67;74.98;100423.02;1737107;82;21006;-69
2022/01/07 06:05:27;;;;;;;2.60;1.10;;;;;;;1.59;74.72;100436.39;1720108;83;21079;-69
2022/01/07 06:07:54;;;;;;;1.60;0.93;;;;;;;1.52;74.19;100440.33;1700292;84;21104;-69
2022/01/07 06:10:20;;;;;;;1.82;1.10;;;;;;;1.47;73.36;100444.05;1727717;83;21150;-69
2022/01/07 06:12:47;;;;;;;2.33;1.10;;;;;;;1.43;72.75;100438.08;1730018;81;21030;-69
2022/01/07 06:15:14;;;;;;;2.90;1.20;;;;;;;1.40;72.39;100449.81;1708803;81;21053;-69
2022/01/07 06:17:41;;;;;;;6.35;1.35;;;;;;;1.37;72.00;100454.16;1705284;83;21141;-69
2022/01/07 06:20:10;;;;;;;2.42;1.10;;;;;;;1.30;71.73;100470.44;1730898;81;21132;-69
2022/01/07 06:22:37;;;;;;;3.02;1.30;;;;;;;1.27;71.74;100476.90;1730714;81;21098;-69
2022/01/07 06:25:04;;;;;;;2.90;1.07;;;;;;;1.25;71.66;100467.09;1730808;81;20999;-69
2022/01/07 06:27:33;;;;;;;2.58;0.90;;;;;;;1.23;71.57;100477.00;1730675;81;21070;-69
2022/01/07 06:29:59;;;;;;;2.12;0.90;;;;;;;1.20;71.42;100491.86;1730872;81;20963;-69
2022/01/07 06:32:26;;;;;;;2.02;1.00;;;;;;;1.10;71.25;100492.22;1730900;81;21534;-69
2022/01/07 06:34:52;;;;;;;2.72;0.90;;;;;;;1.08;71.29;100487.66;1730750;81;21090;-70
2022/01/07 06:37:20;;;;;;;2.70;1.20;;;;;;;1.06;71.14;100495.45;1730695;81;21097;-69
2022/01/07 06:39:47;;;;;;;3.22;1.42;;;;;;;1.04;70.92;100502.72;1731252;81;21716;-69
2022/01/07 06:42:14;;;;;;;1.92;0.90;;;;;;;1.01;70.82;100506.55;1730950;81;20964;-69
2022/01/07 06:44:40;;;;;;;2.92;1.35;;;;;;;0.96;70.47;100519.48;1730889;81;21055;-69
2022/01/07 06:47:07;;;;;;;2.92;1.40;;;;;;;0.93;70.40;100517.23;1730922;81;21003;-69
2022/01/07 06:49:34;;;;;;;3.67;1.40;;;;;;;0.86;70.27;100517.20;1730829;81;21003;-70
2022/01/07 06:52:00;;;;;;;6.42;1.75;;;;;;;0.78;70.14;100533.12;1729127;81;21052;-69
2022/01/07 06:54:27;;;;;;;3.33;1.50;;;;;;;0.73;70.13;100533.41;1729835;81;20955;-69
2022/01/07 06:56:54;;;;;;;3.47;1.30;;;;;;;0.68;70.08;100538.72;1729534;81;22140;-69
2022/01/07 06:59:21;;;;;;;2.95;1.20;;;;;;;0.65;70.05;100550.93;1729610;82;20924;-69
2022/01/07 07:01:47;;;;;;;3.12;1.20;;;;;;;0.67;70.08;100554.70;1730487;81;20975;-69
2022/01/07 07:04:15;;;;;;;2.40;1.22;;;;;;;0.72;70.09;100560.17;1731194;81;20995;-69
2022/01/07 07:06:42;;;;;;;2.45;1.27;;;;;;;0.74;69.87;100559.49;1730218;81;21521;-69
2022/01/07 07:09:08;;;;;;;3.95;1.90;;;;;;;0.77;69.71;100566.19;1731323;81;21774;-69
2022/01/07 07:11:35;;;;;;;3.50;1.40;;;;;;;0.81;69.53;100572.68;1730803;81;20996;-70
2022/01/07 07:14:02;;;;;;;2.87;1.10;;;;;;;0.87;69.35;100566.15;1730730;81;21494;-69
2022/01/07 07:16:29;;;;;;;2.10;1.07;;;;;;;0.96;69.14;100579.97;1730794;81;21633;-69
2022/01/07 07:18:56;;;;;;;3.37;1.40;;;;;;;0.99;68.68;100582.69;1731095;81;20959;-69
2022/01/07 07:21:23;;;;;;;2.62;1.00;;;;;;;1.00;68.37;100579.08;1731012;81;21520;-69
2022/01/07 07:23:49;;;;;;;2.87;1.20;;;;;;;1.06;68.13;100597.53;1730816;81;21000;-69
2022/01/07 07:26:16;;;;;;;3.87;1.30;;;;;;;1.11;67.77;100595.63;1730993;81;21011;-70
2022/01/07 07:28:43;;;;;;;2.62;1.30;;;;;;;1.14;67.45;100603.94;1731097;81;21181;-70
2022/01/07 07:31:13;;;;;;;2.67;1.30;;;;;;;1.18;66.83;100606.98;1730919;81;21004;-70
2022/01/07 07:36:31;;;;;;;3.40;1.55;;;;;;;1.27;66.04;100622.12;1730891;81;20959;-69
2022/01/07 07:39:05;;;;;;;2.72;1.30;;;;;;;1.28;65.94;100614.02;1730872;81;20971;-69
2022/01/07 07:41:33;;;;;;;3.12;1.42;;;;;;;1.32;65.53;100607.89;1730958;81;21010;-71
2022/01/07 07:44:00;;;;;;;3.98;1.77;;;;;;;1.37;64.97;100627.84;1726119;81;21015;-70
2022/01/07 07:46:30;;;;;;;3.70;1.65;;;;;;;1.39;64.65;100628.47;1731036;81;21537;-70
2022/01/07 07:48:57;;;;;;;2.65;1.60;;;;;;;1.42;64.21;100633.86;1730463;81;21147;-70
2022/01/07 07:51:23;;;;;;;3.77;1.65;;;;;;;1.43;63.54;100646.81;1731065;81;21074;-70
2022/01/07 07:53:50;;;;;;;3.70;1.72;;;;;;;1.46;63.19;100645.11;1730938;81;21059;-70
2022/01/07 07:56:17;;;;;;;4.08;1.80;;;;;;;1.49;62.92;100661.02;1730983;81;21129;-70
2022/01/07 07:58:44;;;;;;;2.58;1.20;;;;;;;1.52;62.59;100665.90;1730759;81;21166;-70
2022/01/07 08:01:12;;;;;;;3.52;1.75;;;;;;;1.52;61.68;100659.31;1731332;81;21518;-70
2022/01/07 08:03:40;;;;;;;3.20;1.50;;;;;;;1.50;60.87;100670.02;1730939;81;21125;-71
2022/01/07 08:06:07;;;;;;;3.47;1.55;;;;;;;1.51;60.59;100675.59;1731080;81;21031;-70
2022/01/07 08:08:34;;;;;;;3.95;1.98;;;;;;;1.53;59.27;100699.91;1731122;81;21114;-70
2022/01/07 08:11:05;;;;;;;3.05;1.57;;;;;;;1.57;58.49;100676.64;1730956;81;20947;-71
2022/01/07 08:15:58;;;;;;;3.90;1.47;;;;;;;1.56;57.45;100688.99;1730911;81;21490;-70
2022/01/07 08:16:05;;;;;;;2.58;1.25;;;;;;;1.58;56.84;100694.89;1726276;83;20979;-71
2022/01/07 08:18:35;;;;;;;;;;;;;;;1.59;56.97;100715.45;1733709;83;22736;-70
2022/01/07 08:21:08;;;;;;;2.80;1.32;;;;;;;1.59;57.18;100697.83;1731036;81;20144;-70
2022/01/07 08:23:38;;;;;;;2.45;1.30;;;;;;;1.61;57.00;100697.61;1730215;81;21597;-70
2022/01/07 08:26:09;;;;;;;2.50;1.25;;;;;;;1.61;55.87;100712.94;1730913;81;20959;-71
2022/01/07 08:28:39;;;;;;;2.90;1.40;;;;;;;1.62;54.82;100715.06;1730906;81;21049;-70
2022/01/07 08:36:26;;;;;;;3.72;1.75;;;;;;;1.66;55.82;100729.96;1730951;81;21794;-71
2022/01/07 08:38:53;;;;;;;2.67;1.37;;;;;;;1.69;55.35;100732.20;1730953;81;21593;-70
2022/01/07 08:41:22;;;;;;;3.30;1.60;;;;;;;1.69;54.32;100725.12;1731044;81;20952;-69
2022/01/07 08:43:50;;;;;;;3.40;1.60;;;;;;;1.71;54.39;100733.65;1731255;81;21031;-70
2022/01/07 08:46:16;;;;;;;3.50;1.50;;;;;;;1.74;54.63;100741.13;1730981;81;21470;-70
2022/01/07 08:48:43;;;;;;;2.85;1.40;;;;;;;1.75;54.52;100742.78;1731336;81;21126;-69
2022/01/07 08:51:10;;;;;;;3.42;1.27;;;;;;;1.75;54.93;100754.63;1730797;81;21074;-69
2022/01/07 08:53:38;;;;;;;2.85;1.17;;;;;;;1.76;52.44;100762.02;1730912;81;32669;-70
2022/01/07 08:56:05;;;;;;;2.75;1.20;;;;;;;1.70;51.77;100764.11;1730761;81;21059;-70
2022/01/07 08:58:32;;;;;;;3.33;1.20;;;;;;;1.68;50.74;100774.84;1730934;82;21075;-69
2022/01/07 09:00:59;;;;;;;2.37;1.27;;;;;;;1.65;51.35;100768.65;1731006;81;21512;-69
2022/01/07 09:03:26;;;;;;;2.67;1.20;;;;;;;1.69;51.23;100787.50;1731011;81;21047;-69
2022/01/07 09:05:53;;;;;;;2.65;1.27;;;;;;;1.71;50.34;100787.62;1730864;81;21027;-70
2022/01/07 09:08:21;;;;;;;2.60;1.27;;;;;;;1.73;50.17;100790.05;1731097;81;21551;-70
2022/01/07 09:10:48;;;;;;;3.45;1.52;;;;;;;1.74;49.26;100800.38;1730883;81;21019;-69
2022/01/07 09:13:17;;;;;;;2.42;1.22;;;;;;;1.77;49.30;100800.50;1731030;81;21003;-70
2022/01/07 09:15:43;;;;;;;2.40;1.22;;;;;;;1.77;48.29;100807.09;1730925;81;20964;-70
2022/01/07 09:18:12;;;;;;;3.37;1.57;;;;;;;1.76;48.09;100824.72;1730887;81;21002;-69
2022/01/07 09:20:43;;;;;;;3.92;1.40;;;;;;;1.76;47.75;100816.00;1730831;81;21039;-70
2022/01/07 09:23:11;;;;;;;3.52;1.10;;;;;;;1.75;47.60;100819.15;1731040;81;21035;-70
2022/01/07 09:25:37;;;;;;;2.80;1.27;;;;;;;1.75;46.78;100828.36;1730885;81;21090;-70
2022/01/07 09:28:05;;;;;;;1.80;0.98;;;;;;;1.74;45.42;100821.45;1730838;81;20976;-70
2022/01/07 09:30:33;;;;;;;1.85;0.80;;;;;;;1.74;43.60;100809.59;1730942;81;21023;-70
2022/01/07 09:32:59;;;;;;;2.95;0.88;;;;;;;1.76;43.23;100832.62;1730965;83;21071;-71
2022/01/07 09:35:26;;;;;;;1.25;0.70;;;;;;;1.76;42.96;100819.95;1730984;81;21502;-70
2022/01/07 09:37:54;;;;;;;1.80;0.80;;;;;;;1.74;42.80;100821.45;1730865;81;21849;-71
2022/01/07 09:40:20;;;;;;;2.75;0.90;;;;;;;1.73;43.19;100822.46;1730879;81;21490;-70
2022/01/07 09:43:05;;;;;;;1.62;0.72;;;;;;;1.75;43.42;100831.00;1729992;82;21129;-71
2022/01/07 09:45:33;;;;;;;2.75;1.05;;;;;;;1.77;43.26;100838.69;1727161;81;21058;-70
2022/01/07 09:48:03;;;;;;;1.95;0.90;;;;;;;1.78;43.43;100829.30;1729293;81;21098;-70
2022/01/07 09:50:32;;;;;;;2.27;0.90;;;;;;;1.79;43.87;100830.91;1730599;81;21542;-70
2022/01/07 09:53:06;;;;;;;2.42;1.07;;;;;;;1.80;43.99;100833.85;1730872;81;21050;-69
2022/01/07 09:55:33;;;;;;;3.67;1.17;;;;;;;1.81;44.20;100855.25;1731021;81;21022;-70
2022/01/07 09:58:01;;;;;;;2.90;1.10;;;;;;;1.82;44.42;100837.63;1730593;81;21030;-71
2022/01/07 10:00:42;;;;;;;2.87;1.27;;;;;;;1.84;44.30;100836.91;1730841;81;21081;-70
2022/01/07 10:03:16;;;;;;;3.62;1.30;;;;;;;1.85;44.61;100840.69;1730941;83;21145;-71
2022/01/07 10:05:52;;;;;;;2.75;1.35;;;;;;;1.91;45.40;100847.02;1730815;81;21055;-70
2022/01/07 10:08:28;;;;;;;2.40;1.20;;;;;;;2.00;45.25;100848.98;1730917;81;21135;-70
2022/01/07 10:11:20;;;;;;;4.00;1.42;;;;;;;2.03;45.27;100844.64;1730769;81;20999;-70
2022/01/07 10:13:51;;;;;;;3.45;1.20;;;;;;;2.01;45.20;100854.58;1731482;81;21482;-69
2022/01/07 10:16:22;;;;;;;4.03;1.20;;;;;;;1.99;45.44;100845.53;1725921;81;21082;-70
2022/01/07 10:18:49;;;;;;;;;;;;;;;1.96;45.61;100855.14;1733726;81;21152;-71
2022/01/07 10:21:17;;;;;;;3.50;1.30;;;;;;;1.97;45.87;100850.17;1730959;81;20192;-70
2022/01/07 10:23:44;;;;;;;4.00;1.42;;;;;;;2.01;45.68;100870.38;1730942;81;21031;-70
2022/01/07 10:26:15;;;;;;;3.98;1.42;;;;;;;2.02;45.73;100867.55;1730973;83;21493;-70
2022/01/07 10:28:42;;;;;;;3.40;1.57;;;;;;;2.06;45.77;100866.66;1730616;81;21153;-69
2022/01/07 10:31:09;;;;;;;3.90;1.55;;;;;;;2.05;45.74;100871.11;1730759;81;21014;-69
2022/01/07 10:33:40;;;;;;;3.70;1.40;;;;;;;2.06;46.07;100879.31;1730905;81;20944;-70
2022/01/07 10:36:12;;;;;;;2.65;1.40;;;;;;;2.04;46.53;100881.83;1731066;81;21518;-70
2022/01/07 10:38:55;;;;;;;2.45;1.17;;;;;;;2.03;46.88;100915.27;1730944;81;21022;-69
2022/01/07 10:41:21;;;;;;;;;;;;;;;2.06;47.13;100885.91;1733059;81;21925;-70
2022/01/07 10:43:50;;;;;;;3.77;1.45;;;;;;;2.09;47.04;100892.11;1727012;81;20205;-70
2022/01/07 10:46:27;;;;;;;2.52;1.40;;;;;;;2.04;47.29;100887.94;1730812;81;21019;-70
2022/01/07 10:48:54;;;;;;;2.92;1.30;;;;;;;2.05;47.43;100887.42;1729532;81;20995;-70
2022/01/07 10:51:29;;;;;;;3.85;1.30;;;;;;;2.08;47.77;100888.36;1730943;81;21043;-70
2022/01/07 10:54:01;;;;;;;2.77;1.45;;;;;;;2.12;47.47;100888.28;1729958;81;21122;-70
2022/01/07 10:56:40;;;;;;;3.15;1.27;;;;;;;2.15;47.47;100883.94;1730786;81;21023;-69
2022/01/07 10:59:13;;;;;;;4.47;1.52;;;;;;;2.15;47.53;100891.04;1730847;81;21055;-69
2022/01/07 11:01:51;;;;;;;3.50;1.12;;;;;;;2.12;47.08;100877.73;1730805;81;21015;-69
2022/01/07 11:04:26;;;;;;;2.70;1.07;;;;;;;2.10;46.68;100899.00;1701852;82;21637;-70
2022/01/07 11:06:52;;;;;;;2.33;1.02;;;;;;;2.11;46.34;100872.17;1701925;82;21807;-70
2022/01/07 11:09:20;;;;;;;2.42;1.10;;;;;;;2.14;47.12;100872.26;1701756;82;20995;-70
2022/01/07 11:11:57;;;;;;;2.90;1.00;;;;;;;2.19;46.40;100872.51;1701497;82;20963;-70
2022/01/07 11:14:28;;;;;;;2.45;1.20;;;;;;;2.22;46.35;100878.71;1701640;84;21031;-69
2022/01/07 11:17:04;;;;;;;3.67;1.00;;;;;;;2.23;45.83;100869.79;1702068;83;21081;-70
2022/01/07 11:19:35;;;;;;;3.58;1.00;;;;;;;2.28;46.50;100881.89;1698893;83;21109;-68
2022/01/07 11:22:01;;;;;;;6.45;2.35;;;;;;;2.35;46.26;100876.15;1701607;84;20963;-70
2022/01/07 11:24:54;;;;;;;5.55;1.92;;;;;;;2.36;45.65;100867.22;1710570;81;21083;-70
2022/01/07 11:27:26;;;;;;;3.67;1.47;;;;;;;2.25;45.39;100902.05;1703531;83;21031;-70
2022/01/07 11:30:11;;;;;;;;;;;;;;;2.11;45.96;100894.06;1730677;81;21011;-70
2022/01/07 11:32:41;;;;;;;2.25;0.90;;;;;;;2.12;46.65;100892.23;1731125;81;21794;-70
2022/01/07 11:35:26;;;;;;;3.45;1.00;;;;;;;2.16;46.41;100892.15;1730897;81;21098;-70
2022/01/07 11:37:58;;;;;;;2.70;0.85;;;;;;;2.22;46.22;100897.16;1731099;81;21442;-70
2022/01/07 11:40:41;;;;;;;3.47;0.95;;;;;;;2.24;46.17;100906.51;1730898;81;21019;-70
2022/01/07 11:43:23;;;;;;;3.40;0.98;;;;;;;2.26;45.57;100928.70;1730829;81;20972;-69
2022/01/07 11:45:50;;;;;;;2.75;0.90;;;;;;;2.21;45.43;100924.53;1729403;83;21109;-68
2022/01/07 11:48:25;;;;;;;3.58;0.93;;;;;;;2.14;45.92;100917.06;1729687;83;21038;-70
2022/01/07 11:50:59;;;;;;;4.83;1.17;;;;;;;2.12;45.67;100931.76;1729368;81;21067;-71